Date,TemperatureHighF,TemperatureAvgF,TemperatureLowF,DewpointHighF,DewpointAvgF,DewpointLowF,HumidityHigh,HumidityAvg,HumidityLow,PressureMaxIn,PressureMinIn,WindSpeedMaxMPH,WindSpeedAvgMPH,GustSpeedMaxMPH,PrecipitationSumIn
2013-1-1,37.1,28.9,21.5,25.4,21.5,17.4,84,74,55,30.25,30.03,9,4,11,0.00
2013-1-2,42.2,31.2,19.9,25.4,20.8,17.2,90,68,40,30.30,30.16,8,3,10,0.00
2013-1-3,36.9,29.8,23.3,23.5,19.2,14.4,83,66,42,30.43,30.30,7,3,10,0.00
2013-1-4,31.8,30.2,28.0,26.8,25.6,23.1,89,83,73,30.40,30.21,7,3,10,0.00
2013-1-5,53.2,37.8,26.6,25.7,19.5,11.3,87,53,19,30.34,30.15,10,6,15,0.00
2013-1-6,50.5,34.7,21.8,25.7,19.4,16.9,82,57,29,30.43,30.24,7,2,8,0.00
2013-1-7,50.7,37.4,26.3,25.1,21.1,17.4,73,53,32,30.24,30.00,10,4,14,0.00
2013-1-8,49.8,38.5,25.7,38.4,30.9,21.9,87,74,61,30.12,29.94,4,1,6,0.00
2013-1-9,44.4,38.3,33.6,38.0,32.6,24.8,93,81,52,30.29,29.98,19,10,24,0.61
2013-1-10,52.4,42.4,36.9,43.1,38.3,35.3,94,86,68,30.03,29.82,11,5,16,0.01
2013-1-11,62.2,47.8,37.2,44.2,35.7,18.8,89,65,41,29.85,29.71,8,5,14,0.00
2013-1-12,40.7,35.1,24.6,27.2,20.6,16.6,82,56,40,30.00,29.83,10,6,16,0.00
2013-1-13,33.4,25.4,20.9,19.9,16.6,13.6,85,70,49,30.19,30.01,7,4,10,0.00
2013-1-14,27.8,22.9,18.4,13.1,9.9,7.6,71,58,44,30.23,30.13,7,4,11,0.00
2013-1-15,33.3,24.7,17.2,17.0,13.8,11.0,79,64,45,30.21,30.14,7,3,10,0.00
2013-1-16,51.5,32.9,18.5,26.3,19.5,11.8,79,60,36,30.34,30.17,10,4,15,0.00
2013-1-17,54.7,39.6,27.5,27.4,23.7,21.5,79,56,29,30.53,30.34,6,2,8,0.00
2013-1-18,60.4,42.4,29.7,31.0,25.6,22.7,78,55,24,30.45,30.16,9,4,18,0.00
2013-1-19,65.9,46.5,33.0,28.3,20.4,5.2,75,42,10,30.26,30.11,10,4,13,0.00
2013-1-20,64.6,43.8,26.6,24.5,18.9,13.9,70,42,14,30.26,30.08,6,3,11,0.00
2013-1-21,47.3,35.1,26.6,26.1,22.5,18.9,82,61,39,30.34,30.16,10,4,13,0.00
2013-1-22,67.9,43.5,24.4,35.3,25.5,15.0,82,55,13,30.23,30.11,7,3,13,0.00
2013-1-23,75.5,49.8,30.4,30.1,17.9,-11.1,75,37,4,30.25,30.12,6,3,11,0.00
2013-1-24,76.6,56.7,38.4,25.4,14.6,-4.8,39,22,4,30.21,30.05,7,4,12,0.00
2013-1-25,61.6,51.1,37.4,31.8,28.0,24.7,66,42,25,30.22,30.04,14,4,16,0.00
2013-1-26,65.0,50.3,35.4,45.6,35.5,27.3,80,58,39,30.16,29.95,10,4,16,0.00
2013-1-27,72.9,59.8,50.6,53.2,43.2,31.6,93,61,22,29.98,29.86,13,6,23,0.00
2013-1-28,72.7,57.2,43.0,51.5,33.9,21.2,75,47,16,29.94,29.76,11,4,18,0.00
2013-1-29,53.1,45.2,30.5,32.2,25.4,4.4,81,47,23,29.85,29.60,14,7,21,0.00
2013-1-30,48.1,35.5,24.2,23.9,11.3,-0.6,75,42,14,30.14,29.85,11,6,18,0.00
2013-1-31,61.5,43.6,26.2,22.2,12.7,6.4,54,32,12,30.26,30.05,10,4,15,0.00
2013-2-1,64.4,42.7,23.9,26.9,19.8,11.5,86,48,13,30.26,30.03,9,5,18,0.00
2013-2-2,60.4,45.3,29.9,24.4,17.1,11.8,64,35,15,30.34,30.09,12,4,15,0.00
2013-2-3,57.4,42.6,31.9,43.1,26.5,17.4,73,53,41,30.34,29.94,7,2,14,0.00
2013-2-4,63.7,52.2,43.3,42.6,26.3,11.5,75,43,13,29.96,29.86,14,7,19,0.00
2013-2-5,71.3,50.7,35.0,29.4,14.9,0.2,49,29,6,30.04,29.93,8,3,4,0.00
2013-2-6,72.2,54.1,37.5,40.5,28.3,19.2,88,43,14,30.00,29.81,7,4,14,0.00
2013-2-7,59.2,50.5,37.2,28.2,23.4,20.1,51,35,26,30.25,29.86,19,9,27,0.00
2013-2-8,56.2,43.3,28.8,25.1,18.3,14.2,65,40,19,30.27,30.02,11,5,15,0.00
2013-2-9,71.4,52.1,37.7,41.2,26.6,9.5,59,39,12,30.02,29.59,14,8,20,0.00
2013-2-10,58.4,45.3,34.9,18.2,3.1,-4.7,39,19,8,30.02,29.81,15,7,25,0.00
2013-2-11,52.9,42.8,34.9,23.8,16.7,4.4,52,36,21,30.12,29.93,11,7,18,0.00
2013-2-12,40.1,35.8,30.1,36.4,29.6,23.9,97,79,53,30.12,29.88,14,5,23,0.31
2013-2-13,56.7,39.8,29.0,27.9,20.2,7.4,88,53,14,30.12,29.97,9,4,14,0.01
2013-2-14,60.4,42.9,28.4,30.6,19.7,15.2,70,43,18,30.20,29.97,13,3,21,0.00
2013-2-15,42.9,35.1,28.2,30.2,20.9,15.8,75,58,34,30.42,30.21,12,4,18,0.00
2013-2-16,64.3,42.2,23.9,25.9,17.1,2.9,79,45,9,30.42,30.08,7,3,12,0.00
2013-2-17,71.0,49.9,27.7,21.5,7.7,-22.5,56,26,2,30.08,29.75,12,5,20,0.00
2013-2-18,54.0,46.2,38.8,27.1,18.5,7.5,54,34,19,30.13,29.74,14,7,18,0.00
2013-2-19,54.4,43.7,33.9,38.0,20.0,13.4,88,42,20,30.23,30.02,14,7,20,0.05
2013-2-20,42.0,39.0,36.0,39.3,36.5,34.3,94,91,86,30.02,29.57,13,8,21,0.24
2013-2-21,51.8,39.9,31.2,37.0,32.0,26.4,94,75,52,29.96,29.60,14,6,19,0.11
2013-2-22,47.5,34.1,23.8,27.7,23.4,18.6,87,66,43,30.08,29.95,8,4,13,0.00
2013-2-23,60.1,41.6,25.8,27.0,17.2,2.6,87,47,10,30.01,29.77,8,4,15,0.00
2013-2-24,69.0,49.3,34.7,29.6,20.4,1.8,76,39,7,29.77,29.55,20,7,27,0.00
2013-2-25,35.7,30.6,27.1,28.3,25.8,21.4,91,83,70,29.94,29.65,20,13,27,0.00
2013-2-26,61.0,38.0,19.8,34.0,24.0,15.8,86,61,25,29.94,29.75,8,3,12,0.00
2013-2-27,43.5,35.3,29.4,27.4,25.0,22.1,80,67,48,30.29,29.94,17,8,22,0.00
2013-2-28,53.7,37.7,24.1,27.4,23.1,19.9,85,59,28,30.35,30.22,6,2,11,0.00
2013-3-1,53.3,40.5,27.2,30.4,21.9,15.4,82,52,23,30.35,30.22,12,4,17,0.00
2013-3-2,66.3,47.5,28.7,27.8,22.3,17.3,76,43,16,30.42,30.21,7,3,11,0.00
2013-3-3,80.9,58.6,37.7,23.3,13.2,-8.7,47,23,3,30.21,29.75,10,5,15,0.00
2013-3-4,80.1,64.1,42.8,35.8,21.7,10.6,57,22,9,30.13,29.68,23,7,29,0.00
2013-3-5,53.2,40.8,28.9,28.3,19.2,11.7,75,45,23,30.47,30.14,25,6,29,0.00
2013-3-6,61.6,45.9,29.3,16.2,13.1,10.3,46,28,14,30.36,30.06,14,7,19,0.00
2013-3-7,75.3,55.2,34.0,36.6,20.9,14.9,51,29,11,30.10,29.97,11,6,16,0.00
2013-3-8,77.7,61.3,50.2,52.0,43.8,35.2,77,56,22,30.03,29.81,14,8,20,0.00
2013-3-9,63.5,56.3,42.4,52.1,30.1,5.5,87,46,10,29.89,29.72,16,8,21,0.00
2013-3-10,49.2,40.4,33.2,26.7,15.8,7.6,65,39,19,30.17,29.87,22,13,30,0.00
2013-3-11,69.6,47.5,25.9,23.0,13.0,4.7,57,29,8,30.17,29.94,8,4,13,0.00
2013-3-12,58.0,49.2,38.0,28.7,22.3,11.3,63,36,20,30.37,29.95,19,9,26,0.00
2013-3-13,69.6,50.9,33.2,31.3,26.4,22.1,77,44,17,30.42,30.24,9,4,15,0.00
2013-3-14,81.6,60.3,39.7,32.1,23.0,11.1,54,29,7,30.29,30.13,8,3,12,0.00
2013-3-15,87.5,66.5,43.3,35.8,20.0,-4.1,59,25,3,30.19,29.87,8,4,13,0.00
2013-3-16,74.1,62.6,47.1,38.1,32.3,17.8,56,35,14,29.89,29.76,12,6,15,0.00
2013-3-17,77.1,56.4,39.0,38.4,32.4,18.0,75,46,11,29.91,29.65,15,6,28,0.00
2013-3-18,69.5,54.4,42.6,30.2,25.0,15.3,56,33,16,30.07,29.72,15,5,22,0.00
2013-3-19,64.5,51.0,39.4,37.3,32.0,28.0,68,50,27,30.21,29.95,13,5,19,0.00
2013-3-20,63.6,50.2,33.4,37.6,27.0,17.1,85,48,17,30.36,29.95,10,4,17,0.00
2013-3-21,79.7,62.5,46.1,43.2,26.3,10.2,77,33,8,29.94,29.53,16,7,26,0.00
2013-3-22,63.3,49.4,38.7,40.8,33.7,7.4,90,62,12,29.91,29.63,14,6,17,0.00
2013-3-23,74.4,49.7,28.7,41.9,19.9,-99.9,88,54,1,30.01,29.61,27,9,34,0.00
2013-3-24,48.0,33.9,22.4,17.0,9.4,1.7,65,40,16,30.25,30.02,19,7,23,0.00
2013-3-25,49.2,36.5,21.2,18.0,11.6,4.1,62,38,22,30.36,30.17,9,4,14,0.00
2013-3-26,62.3,44.6,26.7,13.1,10.4,6.8,49,28,11,30.37,30.12,13,6,23,0.00
2013-3-27,79.0,57.6,34.7,34.7,23.0,12.2,51,29,11,30.14,29.99,10,6,15,0.00
2013-3-28,82.4,62.5,41.4,41.5,28.7,10.7,81,38,7,30.14,30.00,9,3,12,0.00
2013-3-29,78.8,63.5,49.8,53.0,48.2,34.4,88,61,24,30.13,29.99,8,3,11,0.09
2013-3-30,83.1,65.8,48.7,49.1,35.0,14.9,88,44,8,30.07,29.92,7,3,10,0.00
2013-3-31,72.2,61.0,50.4,43.8,41.3,38.6,74,50,31,30.14,29.92,20,5,25,0.00
2013-4-1,84.8,64.4,46.8,53.1,40.6,25.3,76,49,12,30.07,29.85,15,6,18,0.00
2013-4-2,55.4,38.9,34.3,47.6,35.9,32.5,93,89,75,30.13,29.99,13,10,18,0.00
2013-4-3,46.6,38.3,33.5,34.2,32.0,30.2,92,79,60,30.22,30.09,12,8,16,0.00
2013-4-4,71.0,48.6,27.9,36.8,29.2,21.7,89,57,17,30.25,30.12,10,4,18,0.00
2013-4-5,80.1,60.1,37.8,39.3,29.8,17.2,83,42,10,30.20,29.91,13,7,20,0.00
2013-4-6,78.9,64.3,48.4,39.9,36.2,28.6,68,39,19,29.95,29.85,13,5,20,0.00
2013-4-7,86.5,67.8,47.4,42.1,28.8,11.1,70,32,6,29.89,29.67,9,4,17,0.00
2013-4-8,87.2,71.4,52.2,45.2,23.8,14.0,54,20,7,29.72,29.52,11,6,19,0.00
2013-4-9,79.4,60.7,33.8,59.4,39.5,15.1,87,50,13,29.94,29.53,22,12,27,0.00
2013-4-10,51.3,35.9,21.4,18.9,14.6,9.4,84,45,24,30.10,29.91,17,10,26,0.00
2013-4-11,67.6,49.3,29.3,22.0,16.4,10.4,55,30,11,30.00,29.78,9,4,13,0.00
2013-4-12,77.7,61.4,48.0,39.6,25.5,16.5,48,27,12,29.99,29.82,10,4,16,0.00
2013-4-13,75.3,61.2,47.4,50.1,41.8,35.7,71,51,27,29.94,29.71,13,6,22,0.00
2013-4-14,86.6,68.5,48.5,50.3,31.8,10.0,92,42,6,29.72,29.57,10,6,20,0.00
2013-4-15,87.8,68.4,50.6,31.9,22.2,6.3,44,20,5,29.81,29.65,9,4,19,0.00
2013-4-16,79.7,63.2,47.4,47.4,33.7,16.1,65,36,14,29.96,29.76,12,6,16,0.00
2013-4-17,90.0,70.4,42.8,61.2,27.1,-28.6,84,44,1,29.84,29.55,23,8,29,0.00
2013-4-18,52.1,41.7,30.6,34.2,19.5,11.4,72,45,22,30.21,29.84,21,12,26,0.00
2013-4-19,64.6,46.7,27.2,16.8,10.9,3.1,54,27,9,30.33,30.06,6,4,13,0.00
2013-4-20,79.4,60.9,42.4,21.3,9.3,-30.6,34,17,1,30.07,29.79,13,7,18,0.00
2013-4-21,79.9,64.0,42.4,36.8,22.0,7.3,45,23,8,30.08,29.94,12,4,16,0.00
2013-4-22,89.5,70.5,49.5,44.9,26.5,-11.2,71,32,2,30.00,29.76,9,6,16,0.00
2013-4-23,71.5,38.8,32.6,37.6,26.9,22.8,75,63,28,30.30,29.80,22,14,34,0.00
2013-4-24,62.9,44.0,26.0,22.9,19.4,15.7,73,43,18,30.35,30.17,12,5,14,0.00
2013-4-25,70.0,55.7,43.4,45.6,30.8,18.0,57,39,30,30.33,30.04,15,7,20,0.00
2013-4-26,85.0,67.6,51.1,49.7,36.1,12.7,82,42,7,30.16,29.98,15,9,20,0.00
2013-4-27,80.9,64.3,45.2,43.8,35.4,26.3,76,41,14,30.24,30.05,12,4,15,0.00
2013-4-28,85.7,68.8,49.5,53.0,35.3,27.9,56,33,13,30.08,29.87,9,4,16,0.00
2013-4-29,87.4,72.1,53.7,46.2,36.2,26.6,69,32,12,29.94,29.72,11,7,20,0.00
2013-4-30,93.0,74.4,56.1,55.0,39.0,14.9,69,35,7,29.79,29.65,14,6,16,0.00
2013-5-1,76.8,64.0,41.1,51.8,41.0,32.8,72,45,21,30.25,29.73,22,13,29,0.00
2013-5-2,48.6,40.5,34.8,32.7,25.9,18.0,82,58,37,30.54,30.25,24,17,32,0.00
2013-5-3,69.2,49.1,29.1,19.2,14.6,7.2,58,31,9,30.51,30.06,6,3,12,0.00
2013-5-4,74.8,58.5,36.8,22.2,16.5,10.5,46,21,10,30.12,30.00,8,3,12,0.00
2013-5-5,70.9,58.1,39.8,29.3,20.3,11.2,55,25,14,30.26,30.09,9,3,11,0.00
2013-5-6,70.4,59.1,48.8,47.7,38.6,22.9,73,48,27,30.17,30.02,12,6,15,0.10
2013-5-7,84.1,64.7,49.2,50.5,45.5,31.8,83,55,16,30.09,29.89,11,6,16,0.00
2013-5-8,86.1,71.0,56.5,58.9,37.0,5.8,85,41,5,29.98,29.85,10,5,17,0.00
2013-5-9,82.8,66.7,50.3,51.2,37.6,18.4,68,39,13,30.08,29.88,17,5,20,0.00
2013-5-10,62.7,56.1,51.2,52.3,48.3,45.3,89,75,59,30.25,30.06,12,6,15,0.40
2013-5-11,73.2,60.3,48.1,51.2,45.0,40.0,88,61,31,30.32,30.22,13,2,18,0.01
2013-5-12,79.9,65.5,50.8,46.9,39.6,28.8,79,44,16,30.34,30.16,7,3,11,0.00
2013-5-13,84.1,69.6,54.4,42.2,33.9,24.1,56,31,12,30.31,30.17,8,5,13,0.00
2013-5-14,86.0,71.0,55.6,50.5,43.3,27.3,66,40,18,30.20,29.94,11,5,15,0.00
2013-5-15,90.2,70.9,57.2,54.8,47.0,34.0,79,48,17,30.01,29.76,8,5,16,0.00
2013-5-16,95.5,75.0,52.8,58.8,43.7,12.5,93,44,5,29.92,29.77,9,3,15,0.00
2013-5-17,98.7,79.2,56.4,60.9,39.8,-5.1,89,39,2,29.92,29.81,7,3,11,0.00
2013-5-18,97.0,83.9,66.6,57.5,31.4,-8.3,54,21,2,29.90,29.71,11,5,14,0.00
2013-5-19,88.9,78.2,61.0,31.5,21.4,14.3,22,13,7,29.85,29.73,11,0,19,0.00
2013-5-20,89.8,74.8,56.0,31.8,23.1,8.0,31,17,6,29.86,29.72,9,4,0,0.00
2013-5-21,77.9,68.9,58.8,52.0,41.2,13.4,55,38,11,29.97,29.77,20,8,0,0.00
2013-5-22,93.5,74.7,55.4,45.8,37.9,15.3,57,32,6,29.97,29.76,12,6,9,0.00
2013-5-23,98.3,78.0,66.0,63.3,53.1,25.8,72,47,9,30.09,29.82,17,8,9,0.00
2013-5-24,83.3,72.6,62.3,59.0,52.8,49.0,70,52,32,30.16,30.03,17,8,0,0.00
2013-5-25,84.8,73.0,64.3,60.2,57.8,50.1,81,61,39,30.14,29.96,13,8,17,0.07
2013-5-26,94.5,76.9,62.1,63.2,54.2,42.4,78,49,21,30.07,29.85,17,8,26,0.00
2013-5-27,93.5,76.2,67.7,65.6,61.9,45.1,82,64,20,29.94,29.75,13,7,26,0.00
2013-5-28,82.3,73.9,67.4,65.2,62.4,55.7,81,68,42,29.82,29.69,15,9,14,0.00
2013-5-29,92.2,79.6,67.9,63.5,41.7,11.1,85,41,5,29.74,29.54,11,7,0,0.00
2013-5-30,93.3,80.3,67.2,62.7,36.9,12.0,82,31,5,29.81,29.64,11,4,0,0.00
2013-5-31,98.1,82.3,68.0,62.4,39.3,23.6,76,30,8,29.83,29.69,9,4,0,0.00
2013-6-1,83.1,75.7,66.3,62.3,39.2,21.9,75,29,13,30.11,29.74,15,8,0,0.00
2013-6-2,84.3,73.0,60.5,49.3,44.4,34.5,56,37,26,30.19,29.93,10,6,0,0.00
2013-6-3,95.5,81.2,64.0,59.4,52.9,38.8,83,41,21,30.11,29.78,13,5,0,0.09
2013-6-4,101.2,85.4,70.3,59.9,42.5,11.0,61,31,4,29.87,29.77,10,4,14,0.00
2013-6-5,89.0,77.3,54.2,61.8,52.5,28.1,93,45,16,30.04,29.79,29,8,37,0.07
2013-6-6,76.4,66.2,59.9,60.6,58.2,56.5,93,76,55,30.09,29.93,16,7,21,0.00
2013-6-7,81.1,70.2,61.0,60.6,56.2,47.7,92,65,32,30.11,29.91,10,5,16,0.00
2013-6-8,87.4,72.8,59.8,64.9,58.8,51.1,89,64,36,30.07,29.76,10,5,13,0.00
2013-6-9,87.2,75.0,60.9,67.1,59.8,50.4,94,64,30,30.05,29.84,13,5,17,0.00
2013-6-10,94.7,81.1,65.4,64.4,54.9,44.1,77,46,18,30.06,29.94,10,6,15,0.11
2013-6-11,94.6,81.7,65.8,61.6,50.8,45.3,64,37,19,30.07,29.93,11,6,17,0.00
2013-6-12,93.0,81.0,67.4,63.5,58.5,52.9,78,49,27,30.09,30.00,9,6,15,0.00
2013-6-13,92.2,80.7,68.7,65.4,60.0,54.4,74,52,29,30.15,29.99,15,5,22,0.00
2013-6-14,81.4,72.4,66.6,65.2,62.8,59.7,88,73,50,30.10,30.00,13,5,18,0.00
2013-6-15,87.7,75.1,66.0,66.9,63.7,58.9,94,71,39,30.11,29.95,11,5,16,0.09
2013-6-16,95.1,81.0,67.1,68.2,62.9,56.5,91,59,28,30.08,29.93,9,5,14,0.00
2013-6-17,93.4,78.0,64.1,68.3,63.6,56.7,84,64,33,30.13,29.89,12,5,17,0.12
2013-6-18,84.6,73.8,63.7,62.6,59.2,56.7,82,62,40,30.17,30.00,11,4,18,0.00
2013-6-19,84.2,74.7,67.4,66.7,63.7,61.5,83,69,54,30.04,29.93,14,8,20,0.00
2013-6-20,88.1,85.9,72.9,57.9,52.5,51.6,59,33,29,30.13,29.95,13,5,0,0.00
2013-6-21,92.7,81.6,73.2,66.6,61.4,47.1,75,52,28,30.14,29.92,17,8,0,0.00
2013-6-22,95.8,90.2,80.7,61.6,59.6,57.8,47,36,30,29.95,29.84,14,10,19,0.00
2013-6-23,98.5,83.8,70.0,59.4,55.6,48.8,55,40,19,29.95,29.84,13,8,20,0.00
2013-6-24,95.1,82.3,71.0,65.1,60.9,56.9,70,50,32,30.01,29.87,15,9,24,0.00
2013-6-25,101.4,85.3,71.5,64.6,55.9,36.1,65,43,11,29.99,29.86,13,5,15,0.00
2013-6-26,106.5,89.3,72.2,65.1,55.4,32.1,74,40,8,29.98,29.89,9,4,13,0.00
2013-6-27,101.9,88.7,72.8,64.0,55.9,42.6,70,38,15,30.09,29.98,9,5,14,0.00
2013-6-28,99.9,88.4,73.5,58.6,53.1,48.1,55,32,18,30.17,30.02,11,4,14,0.00
2013-6-29,99.2,83.6,66.0,61.3,55.3,48.6,77,41,19,30.18,29.94,15,5,21,0.15
2013-6-30,86.5,77.1,65.5,63.5,59.6,51.7,82,57,39,30.19,30.01,15,4,16,0.14
2013-7-1,83.8,75.5,69.6,59.7,52.3,41.7,66,46,29,30.23,30.11,10,4,12,0.00
2013-7-2,83.8,74.7,62.8,48.1,43.5,38.2,56,34,21,30.25,30.11,7,3,10,0.00
2013-7-3,85.6,74.2,63.0,45.7,42.0,40.0,47,33,22,30.18,30.00,9,4,14,0.00
2013-7-4,87.8,75.7,60.8,55.9,49.0,41.3,80,42,23,30.10,29.95,11,6,15,0.33
2013-7-5,92.7,80.2,64.5,56.5,50.6,46.9,60,38,23,30.05,29.90,12,7,17,0.00
2013-7-6,93.3,81.0,68.4,56.7,49.4,44.5,54,35,20,30.04,29.90,12,7,20,0.00
2013-7-7,91.7,81.5,68.3,58.9,51.5,47.9,56,36,23,30.11,30.00,10,6,17,0.00
2013-7-8,93.8,81.5,68.9,61.9,55.7,51.7,60,43,25,30.19,30.07,8,3,11,0.00
2013-7-9,93.1,82.6,69.4,61.6,58.4,55.0,67,45,30,30.21,30.08,9,5,14,0.00
2013-7-10,94.5,83.5,69.9,63.5,58.2,53.5,65,44,26,30.20,30.02,8,4,14,0.00
2013-7-11,96.4,84.3,70.5,60.5,56.0,52.5,59,40,23,30.15,29.98,11,4,15,0.00
2013-7-12,95.6,84.5,71.2,61.2,56.4,51.1,61,40,25,30.09,29.98,9,4,13,0.00
2013-7-13,96.7,84.9,69.5,56.0,48.9,41.1,53,31,15,30.14,30.00,8,3,14,0.00
2013-7-14,99.5,79.2,59.9,58.5,49.6,41.2,90,40,15,30.12,29.94,13,5,20,0.01
2013-7-15,74.1,64.9,58.0,57.5,56.2,53.1,94,75,50,30.18,30.10,10,6,15,0.47
2013-7-16,75.0,66.8,62.2,62.9,59.0,56.3,92,77,53,30.29,30.15,15,4,21,0.21
2013-7-17,77.6,68.5,64.7,66.7,64.3,62.5,95,87,65,30.35,30.27,7,4,12,1.22
2013-7-18,79.6,74.9,67.4,66.8,65.1,62.9,90,72,60,30.30,30.15,8,5,13,0.23
2013-7-19,86.3,74.4,64.2,66.7,63.2,60.6,93,71,45,30.21,30.04,8,3,12,0.00
2013-7-20,87.5,77.1,64.6,66.1,61.8,57.0,90,62,37,30.11,29.96,8,3,11,0.00
2013-7-21,90.2,79.1,66.3,65.7,61.9,57.9,85,58,35,30.06,29.94,8,4,14,0.00
2013-7-22,90.8,79.9,68.1,68.3,64.8,62.1,87,62,41,30.06,29.94,9,4,16,0.00
2013-7-23,95.2,83.0,70.7,69.2,64.9,59.8,83,57,32,30.06,29.95,7,4,12,0.00
2013-7-24,94.3,84.1,71.9,69.9,65.5,62.2,79,55,37,30.12,30.01,9,3,11,0.00
2013-7-25,88.4,78.6,71.7,68.8,64.6,58.8,75,63,46,30.18,30.08,9,4,15,0.00
2013-7-26,86.6,77.7,71.4,67.7,63.5,51.9,86,65,31,30.19,30.08,12,6,18,0.00
2013-7-27,87.4,76.2,64.1,63.9,56.5,45.6,85,55,24,30.24,30.03,8,3,10,0.00
2013-7-28,89.7,78.0,63.4,62.8,56.4,52.2,68,49,32,30.10,29.93,9,5,15,0.00
2013-7-29,95.0,80.3,69.9,67.7,64.5,59.4,86,62,32,30.05,29.97,12,5,17,0.00
2013-7-30,93.3,82.7,69.8,67.7,64.7,62.5,78,56,37,30.16,30.04,10,4,16,0.00
2013-7-31,94.6,84.5,73.8,69.7,66.4,62.4,78,56,36,30.24,30.11,7,3,13,0.00
2013-8-1,92.8,79.8,72.1,71.3,63.8,59.2,74,59,37,30.25,30.07,11,4,17,0.00
2013-8-2,99.0,85.6,71.5,63.9,54.7,42.9,69,40,15,30.08,29.95,6,4,11,0.00
2013-8-3,98.5,86.0,69.9,59.2,53.8,48.2,58,36,19,30.10,30.01,8,5,15,0.00
2013-8-4,94.1,82.8,68.3,63.4,56.4,53.3,65,43,26,30.18,30.04,9,4,12,0.00
2013-8-5,96.6,84.3,68.6,65.2,57.5,51.2,67,43,23,30.13,29.94,7,4,12,0.00
2013-8-6,101.9,86.2,70.2,61.6,56.0,49.5,60,38,18,30.01,29.88,8,3,14,0.05
2013-8-7,98.0,82.4,72.4,64.2,57.5,50.6,71,45,21,30.00,29.92,11,3,16,0.01
2013-8-8,96.4,82.0,68.0,63.1,57.9,49.5,74,47,23,29.99,29.89,8,3,14,0.00
2013-8-9,87.1,76.4,64.8,63.4,60.0,57.1,79,59,39,30.22,29.99,11,6,16,0.00
2013-8-10,87.1,75.9,64.3,62.7,60.0,55.0,88,61,35,30.31,30.14,9,4,13,0.04
2013-8-11,89.9,76.2,68.3,65.4,62.3,56.4,83,64,33,30.25,30.12,12,2,12,0.02
2013-8-12,92.6,80.3,69.3,68.5,63.5,58.4,86,59,32,30.20,30.06,5,2,9,0.00
2013-8-13,92.4,79.3,69.6,66.2,62.5,57.7,77,58,33,30.19,30.06,12,3,14,0.00
2013-8-14,82.5,72.5,64.1,68.2,65.3,62.1,95,80,56,30.24,30.09,14,3,22,1.15
2013-8-15,90.0,74.5,63.2,69.4,64.2,60.3,95,73,38,30.23,30.06,14,2,18,0.40
2013-8-16,85.2,75.5,66.5,64.8,62.2,58.7,88,65,42,30.20,30.10,12,4,17,0.00
2013-8-17,87.7,76.1,64.2,63.5,60.9,56.7,89,62,36,30.21,30.06,9,5,14,0.00
2013-8-18,89.4,76.9,65.3,63.3,60.1,56.4,79,58,37,30.16,30.05,9,6,14,0.00
2013-8-19,92.9,78.9,65.9,61.9,59.2,55.7,76,53,30,30.13,30.00,9,5,15,0.00
2013-8-20,91.6,79.6,66.5,61.1,58.5,52.8,76,51,27,30.11,30.04,11,5,16,0.00
2013-8-21,87.6,77.4,65.7,61.8,56.9,53.6,68,51,32,30.19,30.09,7,4,11,0.00
2013-8-22,89.5,78.3,62.8,63.5,57.8,53.0,78,52,32,30.21,30.06,6,3,14,0.00
2013-8-23,90.0,79.3,67.3,64.0,60.1,55.9,77,54,33,30.18,30.05,10,3,2,0.00
2013-8-24,90.1,78.7,67.0,63.8,60.3,54.3,83,56,31,30.22,30.10,8,3,13,0.00
2013-8-25,90.5,80.5,69.1,63.6,60.4,56.8,74,52,35,30.28,30.16,7,4,12,0.00
2013-8-26,87.5,78.4,67.5,63.5,59.8,55.7,74,54,35,30.30,30.17,7,4,11,0.00
2013-8-27,87.6,77.0,63.8,63.1,58.7,52.0,84,56,30,30.22,30.09,6,3,11,0.00
2013-8-28,87.9,77.2,67.1,65.2,60.2,53.9,81,58,34,30.20,30.12,9,4,17,0.00
2013-8-29,93.6,79.2,64.0,60.1,54.4,48.0,69,45,22,30.23,30.10,7,3,13,0.00
2013-8-30,95.2,81.6,67.4,59.4,55.5,52.4,66,43,25,30.18,30.04,7,3,11,0.00
2013-8-31,95.4,82.5,69.0,59.0,52.8,48.1,58,38,21,30.09,29.96,7,3,11,0.00
2013-9-1,95.6,82.6,69.2,60.8,54.7,50.1,55,40,22,30.09,29.99,9,3,11,0.00
2013-9-2,89.8,80.6,67.0,68.8,60.7,54.4,93,53,31,30.18,30.05,9,4,12,0.60
2013-9-3,90.5,79.8,65.3,62.8,56.5,47.2,79,47,23,30.21,30.08,6,2,7,0.00
2013-9-4,92.5,80.2,64.0,62.4,52.8,42.1,75,42,19,30.24,30.13,6,2,9,0.00
2013-9-5,91.8,78.9,62.5,58.1,47.3,38.4,59,36,16,30.26,30.16,6,1,8,0.00
2013-9-6,91.8,79.8,65.8,62.9,57.2,51.2,77,49,27,30.25,30.09,6,2,9,0.00
2013-9-7,91.5,79.3,67.0,61.5,56.5,53.6,65,47,29,30.18,30.05,9,3,11,0.00
2013-9-8,87.5,73.5,64.0,58.8,56.6,53.1,80,58,31,30.10,29.96,7,2,12,0.00
2013-9-9,85.2,75.5,64.3,63.0,59.2,55.7,83,59,37,30.08,29.96,10,5,16,0.00
2013-9-10,83.0,74.2,65.7,63.8,61.2,58.2,81,65,47,30.17,30.05,10,6,16,0.00
2013-9-11,81.2,73.7,68.3,64.3,61.9,58.7,85,68,50,30.22,30.12,9,5,15,0.00
2013-9-12,86.5,75.7,65.4,63.5,58.4,54.0,81,57,33,30.23,30.09,8,3,15,0.00
2013-9-13,87.2,76.8,66.5,63.4,57.5,53.2,77,53,33,30.15,29.98,8,3,12,0.00
2013-9-14,85.2,75.0,64.1,64.7,58.2,51.7,91,60,33,30.10,29.99,9,4,14,0.00
2013-9-15,87.7,76.8,65.0,60.2,55.0,49.4,62,48,28,30.14,30.03,9,4,15,0.00
2013-9-16,85.4,73.7,67.5,68.1,60.3,55.5,83,64,43,30.24,30.11,7,2,12,0.00
2013-9-17,80.5,72.8,64.4,64.8,62.4,59.0,91,72,50,30.22,30.06,10,4,16,0.00
2013-9-18,85.0,74.7,63.8,65.4,61.2,56.9,88,65,40,30.11,29.95,12,5,10,0.00
2013-9-19,74.6,70.7,67.3,67.3,63.3,60.1,86,78,63,30.07,29.99,9,4,16,0.00
2013-9-20,72.9,66.5,61.4,63.6,59.4,55.3,91,78,57,30.15,30.03,11,5,17,0.00
2013-9-21,80.9,65.6,51.4,72.2,51.5,45.2,91,63,36,30.16,30.00,6,2,9,0.05
2013-9-22,82.2,67.6,51.9,57.6,46.9,41.2,89,52,26,30.02,29.84,10,4,14,0.00
2013-9-23,84.9,69.9,56.1,49.2,37.5,21.3,67,37,10,29.97,29.81,10,4,14,0.00
2013-9-24,84.8,70.2,55.3,48.2,43.0,34.5,66,40,22,30.15,29.97,10,3,16,0.00
2013-9-25,89.7,73.8,56.2,52.9,44.0,34.5,70,39,15,30.05,29.82,8,3,13,0.00
2013-9-26,94.5,78.7,63.4,55.2,50.9,43.6,68,41,18,29.91,29.82,12,6,16,0.00
2013-9-27,87.9,74.4,61.9,67.7,60.6,53.4,83,63,41,29.93,29.79,15,7,24,0.04
2013-9-28,74.8,64.1,54.1,64.9,45.1,36.6,81,53,29,30.25,29.88,15,7,21,0.03
2013-9-29,82.1,63.0,44.5,44.5,41.2,38.0,80,49,21,30.24,29.99,6,2,9,0.00
2013-9-30,90.2,70.5,55.9,44.5,34.9,17.5,65,35,7,30.02,29.83,7,3,12,0.00
2013-10-1,93.6,74.1,56.7,51.9,40.9,25.6,76,37,9,29.94,29.86,9,4,18,0.00
2013-10-2,93.3,74.6,56.8,59.8,44.4,23.7,83,43,10,29.99,29.85,7,3,14,0.00
2013-10-3,91.6,75.8,59.0,63.1,52.1,42.7,90,52,19,29.94,29.79,8,4,12,0.00
2013-10-4,90.6,75.4,64.4,61.7,46.7,14.4,83,47,7,29.99,29.84,9,5,19,0.00
2013-10-5,67.6,56.4,43.8,40.3,27.4,22.5,49,34,21,30.25,30.00,16,8,22,0.00
2013-10-6,77.7,58.4,38.9,31.4,21.9,7.9,56,31,7,30.30,30.17,7,2,10,0.00
2013-10-7,81.6,63.3,43.9,34.1,27.3,23.0,51,29,12,30.28,30.13,5,2,6,0.00
2013-10-8,82.6,65.2,45.1,33.7,29.1,17.9,59,30,10,30.15,29.95,10,4,15,0.00
2013-10-9,83.4,67.3,52.1,48.5,40.1,33.1,57,39,21,30.03,29.93,9,6,14,0.00
2013-10-10,84.5,69.8,53.8,54.6,50.7,47.5,80,53,31,30.00,29.80,13,8,21,0.00
2013-10-11,79.6,66.4,50.4,54.5,35.4,26.2,72,35,16,30.01,29.87,9,4,14,0.00
2013-10-12,78.6,62.4,47.2,41.3,32.2,24.1,48,33,20,30.19,29.99,8,3,13,0.00
2013-10-13,62.5,59.4,56.5,59.8,53.7,41.3,93,83,47,30.29,30.15,11,5,15,0.99
2013-10-14,79.4,68.0,62.4,64.7,59.2,52.1,93,76,40,30.17,29.93,9,5,14,0.00
2013-10-15,65.5,53.9,48.1,57.3,40.3,34.4,76,60,53,30.19,30.00,14,8,22,0.00
2013-10-16,56.7,49.8,44.4,39.8,37.0,34.3,82,62,50,30.23,30.11,7,3,11,0.00
2013-10-17,66.6,53.4,41.2,52.8,46.3,38.2,91,78,57,30.15,29.97,7,3,13,0.00
2013-10-18,65.0,52.8,36.6,54.5,44.7,31.0,92,75,40,30.26,29.94,18,7,22,0.00
2013-10-19,64.3,46.6,31.4,35.0,28.4,21.8,88,56,21,30.29,30.06,7,3,13,0.00
2013-10-20,79.4,58.5,39.9,41.5,31.0,9.4,83,47,7,30.06,29.82,7,3,11,0.00
2013-10-21,64.0,54.7,45.3,38.2,36.2,32.4,69,51,33,30.23,29.92,14,7,21,0.00
2013-10-22,74.1,55.2,38.8,41.0,33.7,26.7,83,51,18,30.28,30.14,6,2,10,0.00
2013-10-23,77.5,60.6,44.3,36.0,29.6,21.9,63,36,13,30.22,30.10,7,3,11,0.00
2013-10-24,70.9,57.8,44.0,42.2,37.6,33.4,68,49,29,30.31,30.17,8,3,15,0.00
2013-10-25,62.9,52.5,41.2,49.9,42.2,33.8,79,68,57,30.41,30.22,9,3,14,0.00
2013-10-26,73.1,59.5,48.5,53.1,45.6,37.9,90,63,35,30.27,30.13,12,4,16,0.00
2013-10-27,71.0,53.8,37.1,42.8,34.6,29.8,79,53,22,30.27,30.01,5,2,9,0.00
2013-10-28,58.6,52.4,49.9,56.6,47.2,42.3,93,83,64,30.04,29.98,7,3,9,0.00
2013-10-29,68.4,68.4,68.4,58.6,58.6,58.6,71,71,71,29.99,29.99,5,5,5,0.00
2013-10-30,73.8,67.1,58.5,62.7,55.1,40.2,89,69,33,30.00,29.81,9,5,9,0.05
2013-10-31,67.4,56.9,48.0,53.9,27.8,19.4,83,36,16,30.00,29.82,10,5,17,0.00
2013-11-1,66.7,56.3,46.4,30.3,26.2,22.0,44,32,20,30.26,29.88,13,6,18,0.00
2013-11-2,65.9,50.9,33.3,30.1,27.3,23.7,72,43,24,30.41,30.17,7,3,12,0.00
2013-11-3,63.8,50.7,39.6,41.4,33.8,28.6,81,54,31,30.17,29.87,12,7,18,0.00
2013-11-4,70.7,56.6,41.4,52.0,45.2,37.5,87,68,42,30.00,29.89,9,4,14,0.00
2013-11-5,74.8,59.9,44.7,55.3,46.9,32.5,87,66,29,30.17,29.88,14,6,22,0.00
2013-11-6,59.6,45.6,34.6,32.4,23.0,13.4,71,45,18,30.40,30.17,15,5,18,0.00
2013-11-7,61.8,46.1,31.3,26.3,21.8,19.0,65,41,19,30.52,30.37,7,3,13,0.00
2013-11-8,61.2,46.8,34.8,42.0,30.5,20.9,88,56,27,30.36,30.07,10,5,17,0.00
2013-11-9,71.0,53.8,41.3,43.1,37.8,31.5,93,62,24,30.21,30.02,7,4,11,0.00
2013-11-10,65.2,49.4,38.0,48.8,42.7,34.5,92,79,52,30.35,30.21,6,3,7,0.00
2013-11-11,72.0,54.9,44.5,52.6,46.6,42.6,94,77,37,30.39,30.19,9,2,15,0.01
2013-11-12,54.0,38.2,30.0,49.0,23.0,12.4,89,59,27,30.75,30.40,16,8,21,0.00
2013-11-13,57.6,41.2,27.2,24.0,16.2,10.7,56,38,26,30.66,30.25,6,3,11,0.00
2013-11-14,67.9,49.0,36.0,41.9,28.5,10.9,56,45,32,30.25,29.88,6,3,12,0.00
2013-11-15,74.9,55.1,33.4,48.4,35.8,25.1,73,51,26,29.97,29.79,9,4,19,0.00
2013-11-16,74.2,62.0,54.8,50.4,44.3,32.2,78,56,22,29.84,29.67,11,5,26,0.00
2013-11-17,73.9,61.2,48.6,42.0,32.7,24.3,63,37,16,30.12,29.75,13,4,24,0.00
2013-11-18,60.2,52.1,46.5,31.1,20.7,12.6,44,30,19,30.27,30.12,8,4,17,0.00
2013-11-19,70.2,53.8,35.6,50.5,37.0,20.8,84,54,36,30.20,29.89,11,4,10,0.00
2013-11-20,70.3,59.0,51.2,52.9,46.3,33.5,91,66,32,29.94,29.82,8,3,16,0.00
2013-11-21,71.5,51.2,28.2,53.8,39.8,18.6,89,68,30,30.35,29.92,18,7,28,0.00
2013-11-22,28.3,25.3,23.2,21.2,18.2,14.2,86,75,63,30.55,30.35,20,13,27,0.00
2013-11-23,29.8,27.4,24.6,25.8,22.8,20.0,89,83,68,30.61,30.50,13,9,17,0.00
2013-11-24,28.9,26.7,24.8,25.3,23.6,21.8,91,88,84,30.58,30.19,8,4,13,0.00
2013-11-25,37.4,30.9,27.6,30.3,26.6,24.4,91,84,69,30.24,30.07,13,6,19,0.10
2013-11-26,44.2,33.5,24.8,28.0,24.8,21.0,89,72,40,30.43,30.24,14,6,18,0.03
2013-11-27,51.0,36.1,22.7,33.0,27.8,19.6,90,73,46,30.43,30.25,5,2,12,0.00
2013-11-28,56.6,41.6,29.4,33.2,29.5,26.0,88,65,32,30.34,30.22,5,2,10,0.00
2013-11-29,59.7,43.0,29.5,36.3,32.3,26.7,90,69,39,30.39,30.25,6,2,11,0.00
2013-11-30,67.0,49.7,35.8,42.7,36.1,31.8,86,63,31,30.27,30.14,5,2,10,0.00
2013-12-1,69.2,53.5,45.6,39.1,34.4,25.1,76,51,20,30.17,30.00,8,3,13,0.00
2013-12-2,70.1,53.8,40.3,27.8,26.2,23.5,59,37,18,30.00,29.70,7,4,14,0.00
2013-12-3,75.5,60.4,50.2,27.2,21.3,11.5,37,24,9,29.75,29.62,9,5,17,0.00
2013-12-4,73.5,56.0,29.2,42.5,31.9,18.2,63,42,24,29.99,29.62,13,6,21,0.00
2013-12-5,29.2,20.1,17.1,17.7,11.3,4.7,83,69,51,30.19,29.99,14,8,22,0.00
2013-12-6,26.4,19.0,15.1,15.3,11.5,8.5,82,73,61,30.42,30.12,9,5,13,0.00
2013-12-7,15.1,12.9,10.1,10.5,4.9,0.6,84,70,58,30.44,30.08,7,4,10,0.00
2013-12-8,57.2,31.9,14.5,31.3,21.1,10.5,90,70,19,30.08,29.89,8,3,15,0.00
2013-12-9,33.0,22.3,17.2,24.6,18.1,13.7,89,84,67,30.36,30.02,10,4,14,0.00
2013-12-10,48.2,29.8,13.9,21.6,13.8,5.4,89,56,19,30.38,30.19,7,3,14,0.00
2013-12-11,41.2,32.9,25.9,18.5,17.1,13.4,71,53,38,30.57,30.19,15,6,20,0.00
2013-12-12,43.3,33.3,23.0,27.3,22.1,17.8,84,65,41,30.55,30.17,6,2,11,0.00
2013-12-13,61.1,44.8,33.3,40.7,30.6,18.1,83,60,35,30.18,29.75,13,5,24,0.01
2013-12-14,49.9,38.0,29.1,25.0,20.1,17.1,64,49,32,30.37,29.95,17,8,25,0.00
2013-12-15,59.4,46.5,36.9,21.5,19.9,18.0,48,36,20,30.24,30.19,5,2,10,0.00
2013-12-16,67.7,44.5,26.3,26.9,20.3,17.4,70,43,15,30.25,30.14,4,2,8,0.00
2013-12-17,67.2,45.5,27.5,26.3,21.7,18.3,70,44,17,30.34,30.23,6,2,8,0.00
2013-12-18,68.8,48.3,29.9,32.3,25.1,20.9,73,45,17,30.29,29.89,8,4,17,0.00
2013-12-19,73.3,53.4,41.7,39.5,27.0,1.6,87,48,6,29.89,29.69,13,5,17,0.00
2013-12-20,46.8,36.5,30.7,34.6,25.3,16.8,93,67,31,29.95,29.71,14,6,20,0.66
2013-12-21,48.4,39.8,28.8,40.7,34.5,23.0,94,82,58,29.86,29.52,11,4,15,0.05
2013-12-22,42.8,33.4,26.2,27.3,23.8,20.7,81,69,48,30.30,29.86,10,5,13,0.00
2013-12-23,48.6,35.2,27.3,29.3,25.4,23.3,88,70,37,30.47,30.29,8,3,13,0.00
2013-12-24,59.2,37.7,24.2,35.2,27.4,21.4,91,71,32,30.44,30.10,11,4,10,0.00
2013-12-25,46.9,37.2,28.1,32.0,27.8,20.7,89,70,45,30.46,30.13,18,7,21,0.00
2013-12-26,51.7,41.1,26.6,31.0,24.1,19.7,81,53,30,30.45,30.27,5,2,7,0.00
2013-12-27,54.9,36.9,24.4,28.9,22.4,18.5,82,60,25,30.40,30.28,4,2,7,0.00
2013-12-28,54.9,38.4,27.1,36.1,28.4,21.8,91,69,40,30.28,29.86,8,4,13,0.00
2013-12-29,34.6,28.8,23.5,27.8,19.4,12.5,82,68,50,30.25,29.86,20,11,26,0.00
2013-12-30,53.1,42.0,25.0,22.1,18.6,16.9,72,41,25,30.40,30.18,14,5,19,0.00
2013-12-31,57.0,38.9,23.5,25.8,21.3,15.8,73,52,27,30.40,30.07,9,4,16,0.00
2014-1-1,66.3,44.5,29.3,28.3,23.1,20.0,72,47,18,30.36,29.94,19,8,24,0.00
2014-1-2,48.6,32.4,19.8,21.7,18.8,15.5,83,60,30,30.50,30.31,11,3,14,0.00